sensor_id;sensor_type;location;lat;lon;timestamp;temperature;humidity
11491;DHT22;5802;52.832;4.758;2023-07-31T00:01:36;24.30;55.90
11491;DHT22;5802;52.832;4.758;2023-07-31T00:04:04;24.30;55.80
11491;DHT22;5802;52.832;4.758;2023-07-31T00:06:31;24.30;55.90
11491;DHT22;5802;52.832;4.758;2023-07-31T00:08:58;24.30;55.90
11491;DHT22;5802;52.832;4.758;2023-07-31T00:11:24;24.30;55.90
11491;DHT22;5802;52.832;4.758;2023-07-31T00:13:53;24.30;55.90
11491;DHT22;5802;52.832;4.758;2023-07-31T00:16:19;24.30;55.90
11491;DHT22;5802;52.832;4.758;2023-07-31T00:18:46;24.30;55.90
11491;DHT22;5802;52.832;4.758;2023-07-31T00:21:14;24.30;56.00
11491;DHT22;5802;52.832;4.758;2023-07-31T00:23:41;24.30;55.90
11491;DHT22;5802;52.832;4.758;2023-07-31T00:26:07;24.30;56.00
11491;DHT22;5802;52.832;4.758;2023-07-31T00:28:34;24.30;56.00
11491;DHT22;5802;52.832;4.758;2023-07-31T00:31:01;24.30;56.00
11491;DHT22;5802;52.832;4.758;2023-07-31T00:33:31;24.30;56.00
11491;DHT22;5802;52.832;4.758;2023-07-31T00:35:58;24.20;55.90
11491;DHT22;5802;52.832;4.758;2023-07-31T00:38:26;24.30;56.00
11491;DHT22;5802;52.832;4.758;2023-07-31T00:40:52;24.30;56.00
11491;DHT22;5802;52.832;4.758;2023-07-31T00:43:19;24.30;56.00
11491;DHT22;5802;52.832;4.758;2023-07-31T00:45:46;24.30;56.00
11491;DHT22;5802;52.832;4.758;2023-07-31T00:48:12;24.20;55.90
11491;DHT22;5802;52.832;4.758;2023-07-31T00:50:39;24.20;56.00
11491;DHT22;5802;52.832;4.758;2023-07-31T00:53:06;24.20;55.90
11491;DHT22;5802;52.832;4.758;2023-07-31T00:55:34;24.20;56.00
11491;DHT22;5802;52.832;4.758;2023-07-31T00:58:01;24.20;55.90
11491;DHT22;5802;52.832;4.758;2023-07-31T01:00:28;24.20;56.00
11491;DHT22;5802;52.832;4.758;2023-07-31T01:02:54;24.20;56.00
11491;DHT22;5802;52.832;4.758;2023-07-31T01:05:27;24.20;56.00
11491;DHT22;5802;52.832;4.758;2023-07-31T01:08:04;24.20;56.00
11491;DHT22;5802;52.832;4.758;2023-07-31T01:10:40;24.20;56.00
11491;DHT22;5802;52.832;4.758;2023-07-31T01:13:09;24.20;56.00
11491;DHT22;5802;52.832;4.758;2023-07-31T01:15:37;24.20;56.00
11491;DHT22;5802;52.832;4.758;2023-07-31T01:18:07;24.20;56.10
11491;DHT22;5802;52.832;4.758;2023-07-31T01:20:35;24.20;56.10
11491;DHT22;5802;52.832;4.758;2023-07-31T01:23:23;24.20;56.10
11491;DHT22;5802;52.832;4.758;2023-07-31T01:26:02;24.20;56.10
11491;DHT22;5802;52.832;4.758;2023-07-31T01:28:36;24.10;56.00
11491;DHT22;5802;52.832;4.758;2023-07-31T01:31:07;24.20;56.10
11491;DHT22;5802;52.832;4.758;2023-07-31T01:33:37;24.10;56.10
11491;DHT22;5802;52.832;4.758;2023-07-31T01:36:04;24.10;56.10
11491;DHT22;5802;52.832;4.758;2023-07-31T01:38:31;24.10;56.10
11491;DHT22;5802;52.832;4.758;2023-07-31T01:40:59;24.10;56.10
11491;DHT22;5802;52.832;4.758;2023-07-31T01:43:26;24.10;56.10
11491;DHT22;5802;52.832;4.758;2023-07-31T01:45:53;24.10;56.10
11491;DHT22;5802;52.832;4.758;2023-07-31T01:48:19;24.10;56.10
11491;DHT22;5802;52.832;4.758;2023-07-31T01:50:46;24.10;56.70
11491;DHT22;5802;52.832;4.758;2023-07-31T01:53:13;24.10;56.00
11491;DHT22;5802;52.832;4.758;2023-07-31T01:55:40;24.10;56.10
11491;DHT22;5802;52.832;4.758;2023-07-31T01:58:08;24.10;56.10
11491;DHT22;5802;52.832;4.758;2023-07-31T02:00:34;24.10;56.00
11491;DHT22;5802;52.832;4.758;2023-07-31T02:03:01;24.10;56.00
11491;DHT22;5802;52.832;4.758;2023-07-31T02:05:28;24.10;56.00
11491;DHT22;5802;52.832;4.758;2023-07-31T02:07:54;24.00;56.00
11491;DHT22;5802;52.832;4.758;2023-07-31T02:10:21;24.10;56.00
11491;DHT22;5802;52.832;4.758;2023-07-31T02:12:48;24.10;56.00
11491;DHT22;5802;52.832;4.758;2023-07-31T02:15:16;24.10;56.00
11491;DHT22;5802;52.832;4.758;2023-07-31T02:17:43;24.10;56.00
11491;DHT22;5802;52.832;4.758;2023-07-31T02:20:10;24.00;56.00
11491;DHT22;5802;52.832;4.758;2023-07-31T02:22:37;24.00;56.00
11491;DHT22;5802;52.832;4.758;2023-07-31T02:25:04;24.00;56.00
11491;DHT22;5802;52.832;4.758;2023-07-31T02:27:31;24.00;56.00
11491;DHT22;5802;52.832;4.758;2023-07-31T02:29:57;24.00;56.00
11491;DHT22;5802;52.832;4.758;2023-07-31T02:32:26;24.00;56.00
11491;DHT22;5802;52.832;4.758;2023-07-31T02:34:53;24.00;56.00
11491;DHT22;5802;52.832;4.758;2023-07-31T02:37:20;24.00;56.00
11491;DHT22;5802;52.832;4.758;2023-07-31T02:39:46;24.00;56.00
11491;DHT22;5802;52.832;4.758;2023-07-31T02:42:14;24.00;56.00
11491;DHT22;5802;52.832;4.758;2023-07-31T02:44:41;24.00;56.00
11491;DHT22;5802;52.832;4.758;2023-07-31T02:47:07;24.00;56.00
11491;DHT22;5802;52.832;4.758;2023-07-31T02:49:35;24.00;56.10
11491;DHT22;5802;52.832;4.758;2023-07-31T02:52:02;24.00;56.00
11491;DHT22;5802;52.832;4.758;2023-07-31T02:54:29;24.00;56.00
11491;DHT22;5802;52.832;4.758;2023-07-31T02:56:56;24.00;56.00
11491;DHT22;5802;52.832;4.758;2023-07-31T02:59:22;24.00;56.10
11491;DHT22;5802;52.832;4.758;2023-07-31T03:01:50;24.00;56.00
11491;DHT22;5802;52.832;4.758;2023-07-31T03:04:17;24.00;56.00
11491;DHT22;5802;52.832;4.758;2023-07-31T03:06:45;23.90;56.00
11491;DHT22;5802;52.832;4.758;2023-07-31T03:09:11;24.00;56.10
11491;DHT22;5802;52.832;4.758;2023-07-31T03:11:38;23.90;56.00
11491;DHT22;5802;52.832;4.758;2023-07-31T03:14:05;24.00;56.10
11491;DHT22;5802;52.832;4.758;2023-07-31T03:16:32;24.00;56.10
11491;DHT22;5802;52.832;4.758;2023-07-31T03:18:58;24.00;56.10
11491;DHT22;5802;52.832;4.758;2023-07-31T03:21:25;24.00;56.10
11491;DHT22;5802;52.832;4.758;2023-07-31T03:23:53;23.90;56.00
11491;DHT22;5802;52.832;4.758;2023-07-31T03:26:20;23.90;56.00
11491;DHT22;5802;52.832;4.758;2023-07-31T03:28:46;23.90;56.10
11491;DHT22;5802;52.832;4.758;2023-07-31T03:31:14;23.90;56.10
11491;DHT22;5802;52.832;4.758;2023-07-31T03:33:41;23.90;56.10
11491;DHT22;5802;52.832;4.758;2023-07-31T03:36:08;23.90;56.10
11491;DHT22;5802;52.832;4.758;2023-07-31T03:38:35;23.90;56.10
11491;DHT22;5802;52.832;4.758;2023-07-31T03:41:03;23.90;56.10
11491;DHT22;5802;52.832;4.758;2023-07-31T03:43:31;23.90;56.10
11491;DHT22;5802;52.832;4.758;2023-07-31T03:45:59;23.90;56.10
11491;DHT22;5802;52.832;4.758;2023-07-31T03:48:25;23.90;56.20
11491;DHT22;5802;52.832;4.758;2023-07-31T03:50:52;23.90;56.20
11491;DHT22;5802;52.832;4.758;2023-07-31T03:53:19;23.90;56.20
11491;DHT22;5802;52.832;4.758;2023-07-31T03:55:46;23.80;56.20
11491;DHT22;5802;52.832;4.758;2023-07-31T03:58:14;23.90;56.20
11491;DHT22;5802;52.832;4.758;2023-07-31T04:00:40;23.90;56.20
11491;DHT22;5802;52.832;4.758;2023-07-31T04:03:07;23.80;56.20
11491;DHT22;5802;52.832;4.758;2023-07-31T04:05:38;23.80;56.20
11491;DHT22;5802;52.832;4.758;2023-07-31T04:08:05;23.80;56.20
11491;DHT22;5802;52.832;4.758;2023-07-31T04:10:31;23.80;56.20
11491;DHT22;5802;52.832;4.758;2023-07-31T04:12:58;23.80;56.20
11491;DHT22;5802;52.832;4.758;2023-07-31T04:15:27;23.80;56.80
11491;DHT22;5802;52.832;4.758;2023-07-31T04:17:53;23.80;56.20
11491;DHT22;5802;52.832;4.758;2023-07-31T04:20:20;23.80;56.20
11491;DHT22;5802;52.832;4.758;2023-07-31T04:22:47;23.80;56.90
11491;DHT22;5802;52.832;4.758;2023-07-31T04:25:13;23.80;56.30
11491;DHT22;5802;52.832;4.758;2023-07-31T04:27:40;23.80;56.30
11491;DHT22;5802;52.832;4.758;2023-07-31T04:30:08;23.80;56.30
11491;DHT22;5802;52.832;4.758;2023-07-31T04:32:36;23.80;56.30
11491;DHT22;5802;52.832;4.758;2023-07-31T04:35:03;23.80;56.40
11491;DHT22;5802;52.832;4.758;2023-07-31T04:37:30;23.80;56.40
11491;DHT22;5802;52.832;4.758;2023-07-31T04:39:57;23.80;56.40
11491;DHT22;5802;52.832;4.758;2023-07-31T04:42:23;23.80;56.30
11491;DHT22;5802;52.832;4.758;2023-07-31T04:44:50;23.80;56.40
11491;DHT22;5802;52.832;4.758;2023-07-31T04:47:18;23.80;56.40
11491;DHT22;5802;52.832;4.758;2023-07-31T04:49:46;23.80;56.40
11491;DHT22;5802;52.832;4.758;2023-07-31T04:52:13;23.80;56.40
11491;DHT22;5802;52.832;4.758;2023-07-31T04:54:39;23.80;56.40
11491;DHT22;5802;52.832;4.758;2023-07-31T04:57:06;23.80;56.30
11491;DHT22;5802;52.832;4.758;2023-07-31T04:59:33;23.80;56.40
11491;DHT22;5802;52.832;4.758;2023-07-31T05:01:59;23.80;56.40
11491;DHT22;5802;52.832;4.758;2023-07-31T05:04:26;23.80;56.40
11491;DHT22;5802;52.832;4.758;2023-07-31T05:06:54;23.80;56.40
11491;DHT22;5802;52.832;4.758;2023-07-31T05:09:21;23.80;56.40
11491;DHT22;5802;52.832;4.758;2023-07-31T05:11:47;23.80;56.40
11491;DHT22;5802;52.832;4.758;2023-07-31T05:14:14;23.80;56.40
11491;DHT22;5802;52.832;4.758;2023-07-31T05:16:41;23.80;56.50
11491;DHT22;5802;52.832;4.758;2023-07-31T05:19:08;23.80;56.40
11491;DHT22;5802;52.832;4.758;2023-07-31T05:21:34;23.80;56.50
11491;DHT22;5802;52.832;4.758;2023-07-31T05:24:03;23.70;56.40
11491;DHT22;5802;52.832;4.758;2023-07-31T05:26:29;23.70;56.60
11491;DHT22;5802;52.832;4.758;2023-07-31T05:28:56;23.70;61.50
11491;DHT22;5802;52.832;4.758;2023-07-31T05:31:24;23.80;58.00
11491;DHT22;5802;52.832;4.758;2023-07-31T05:33:51;23.70;56.50
11491;DHT22;5802;52.832;4.758;2023-07-31T05:36:17;23.70;56.90
11491;DHT22;5802;52.832;4.758;2023-07-31T05:38:44;23.70;61.30
11491;DHT22;5802;52.832;4.758;2023-07-31T05:41:12;23.70;58.80
11491;DHT22;5802;52.832;4.758;2023-07-31T05:43:39;23.70;59.50
11491;DHT22;5802;52.832;4.758;2023-07-31T05:46:06;23.70;60.00
11491;DHT22;5802;52.832;4.758;2023-07-31T05:48:34;23.70;56.40
11491;DHT22;5802;52.832;4.758;2023-07-31T05:51:04;23.70;56.30
11491;DHT22;5802;52.832;4.758;2023-07-31T05:53:31;23.70;56.40
11491;DHT22;5802;52.832;4.758;2023-07-31T05:55:57;23.70;56.30
11491;DHT22;5802;52.832;4.758;2023-07-31T05:58:25;23.70;56.30
11491;DHT22;5802;52.832;4.758;2023-07-31T06:00:52;23.70;56.30
11491;DHT22;5802;52.832;4.758;2023-07-31T06:03:18;23.70;56.40
11491;DHT22;5802;52.832;4.758;2023-07-31T06:05:45;23.70;56.30
11491;DHT22;5802;52.832;4.758;2023-07-31T06:08:12;23.70;56.30
11491;DHT22;5802;52.832;4.758;2023-07-31T06:10:38;23.70;56.30
11491;DHT22;5802;52.832;4.758;2023-07-31T06:13:05;23.70;56.30
11491;DHT22;5802;52.832;4.758;2023-07-31T06:15:33;23.70;56.30
11491;DHT22;5802;52.832;4.758;2023-07-31T06:18:00;23.70;56.30
11491;DHT22;5802;52.832;4.758;2023-07-31T06:20:27;23.70;56.30
11491;DHT22;5802;52.832;4.758;2023-07-31T06:22:54;23.70;56.30
11491;DHT22;5802;52.832;4.758;2023-07-31T06:25:21;23.70;56.30
11491;DHT22;5802;52.832;4.758;2023-07-31T06:27:47;23.70;56.30
11491;DHT22;5802;52.832;4.758;2023-07-31T06:30:14;23.70;56.30
11491;DHT22;5802;52.832;4.758;2023-07-31T06:32:42;23.70;56.30
11491;DHT22;5802;52.832;4.758;2023-07-31T06:35:09;23.70;56.30
11491;DHT22;5802;52.832;4.758;2023-07-31T06:37:36;23.70;56.30
11491;DHT22;5802;52.832;4.758;2023-07-31T06:40:03;23.70;56.30
11491;DHT22;5802;52.832;4.758;2023-07-31T06:42:31;23.70;56.30
11491;DHT22;5802;52.832;4.758;2023-07-31T06:44:57;23.70;56.30
11491;DHT22;5802;52.832;4.758;2023-07-31T06:47:24;23.70;56.20
11491;DHT22;5802;52.832;4.758;2023-07-31T06:49:52;23.70;56.20
11491;DHT22;5802;52.832;4.758;2023-07-31T06:52:19;23.70;56.90
11491;DHT22;5802;52.832;4.758;2023-07-31T06:55:00;23.70;56.30
11491;DHT22;5802;52.832;4.758;2023-07-31T06:57:28;23.70;56.30
11491;DHT22;5802;52.832;4.758;2023-07-31T06:59:54;23.70;56.30
11491;DHT22;5802;52.832;4.758;2023-07-31T07:02:21;23.70;56.30
11491;DHT22;5802;52.832;4.758;2023-07-31T07:04:51;23.70;56.40
11491;DHT22;5802;52.832;4.758;2023-07-31T07:07:18;23.70;56.30
11491;DHT22;5802;52.832;4.758;2023-07-31T07:09:45;23.70;56.30
11491;DHT22;5802;52.832;4.758;2023-07-31T07:12:11;23.70;56.30
11491;DHT22;5802;52.832;4.758;2023-07-31T07:14:38;23.70;56.40
11491;DHT22;5802;52.832;4.758;2023-07-31T07:17:05;23.70;56.30
11491;DHT22;5802;52.832;4.758;2023-07-31T07:19:32;23.70;56.30
11491;DHT22;5802;52.832;4.758;2023-07-31T07:22:00;23.70;56.30
11491;DHT22;5802;52.832;4.758;2023-07-31T07:24:27;23.70;56.30
11491;DHT22;5802;52.832;4.758;2023-07-31T07:26:54;23.70;56.30
11491;DHT22;5802;52.832;4.758;2023-07-31T07:29:21;23.70;56.40
11491;DHT22;5802;52.832;4.758;2023-07-31T07:31:47;23.70;56.40
11491;DHT22;5802;52.832;4.758;2023-07-31T07:34:14;23.70;56.40
11491;DHT22;5802;52.832;4.758;2023-07-31T07:36:40;23.70;56.40
11491;DHT22;5802;52.832;4.758;2023-07-31T07:39:10;23.70;56.40
11491;DHT22;5802;52.832;4.758;2023-07-31T07:41:37;23.70;56.40
11491;DHT22;5802;52.832;4.758;2023-07-31T07:44:04;23.70;56.40
11491;DHT22;5802;52.832;4.758;2023-07-31T07:46:30;23.70;56.40
11491;DHT22;5802;52.832;4.758;2023-07-31T07:48:57;23.80;56.50
11491;DHT22;5802;52.832;4.758;2023-07-31T07:51:24;23.80;56.50
11491;DHT22;5802;52.832;4.758;2023-07-31T07:53:51;23.80;56.40
11491;DHT22;5802;52.832;4.758;2023-07-31T07:56:19;23.80;56.40
11491;DHT22;5802;52.832;4.758;2023-07-31T07:58:48;23.80;56.40
11491;DHT22;5802;52.832;4.758;2023-07-31T08:01:15;23.80;56.40
11491;DHT22;5802;52.832;4.758;2023-07-31T08:03:42;23.80;56.40
11491;DHT22;5802;52.832;4.758;2023-07-31T08:06:09;23.80;56.40
11491;DHT22;5802;52.832;4.758;2023-07-31T08:08:35;23.80;56.40
11491;DHT22;5802;52.832;4.758;2023-07-31T08:11:02;23.80;56.40
11491;DHT22;5802;52.832;4.758;2023-07-31T08:13:30;23.80;56.40
11491;DHT22;5802;52.832;4.758;2023-07-31T08:15:57;23.80;56.40
11491;DHT22;5802;52.832;4.758;2023-07-31T08:18:24;23.80;56.40
11491;DHT22;5802;52.832;4.758;2023-07-31T08:20:51;23.80;56.60
11491;DHT22;5802;52.832;4.758;2023-07-31T08:23:17;23.80;56.40
11491;DHT22;5802;52.832;4.758;2023-07-31T08:25:45;23.80;56.50
11491;DHT22;5802;52.832;4.758;2023-07-31T08:28:11;23.90;56.50
11491;DHT22;5802;52.832;4.758;2023-07-31T08:30:39;23.90;56.50
11491;DHT22;5802;52.832;4.758;2023-07-31T08:33:07;23.90;56.60
11491;DHT22;5802;52.832;4.758;2023-07-31T08:35:33;23.90;56.60
11491;DHT22;5802;52.832;4.758;2023-07-31T08:38:00;23.90;56.60
11491;DHT22;5802;52.832;4.758;2023-07-31T08:40:27;23.90;56.80
11491;DHT22;5802;52.832;4.758;2023-07-31T08:42:55;24.00;56.80
11491;DHT22;5802;52.832;4.758;2023-07-31T08:45:27;24.00;56.90
11491;DHT22;5802;52.832;4.758;2023-07-31T08:47:56;24.00;56.90
11491;DHT22;5802;52.832;4.758;2023-07-31T08:50:23;24.00;56.90
11491;DHT22;5802;52.832;4.758;2023-07-31T08:52:52;24.00;56.90
11491;DHT22;5802;52.832;4.758;2023-07-31T08:55:19;24.00;56.90
11491;DHT22;5802;52.832;4.758;2023-07-31T08:57:50;24.00;56.90
11491;DHT22;5802;52.832;4.758;2023-07-31T09:00:19;24.00;56.90
11491;DHT22;5802;52.832;4.758;2023-07-31T09:02:53;24.00;56.90
11491;DHT22;5802;52.832;4.758;2023-07-31T09:05:23;24.00;56.80
11491;DHT22;5802;52.832;4.758;2023-07-31T09:07:50;24.00;56.80
11491;DHT22;5802;52.832;4.758;2023-07-31T09:10:17;24.10;56.90
11491;DHT22;5802;52.832;4.758;2023-07-31T09:12:44;24.10;56.80
11491;DHT22;5802;52.832;4.758;2023-07-31T09:15:12;24.10;56.80
11491;DHT22;5802;52.832;4.758;2023-07-31T09:17:39;24.10;57.30
11491;DHT22;5802;52.832;4.758;2023-07-31T09:20:13;24.10;56.70
11491;DHT22;5802;52.832;4.758;2023-07-31T09:22:43;24.10;56.60
11491;DHT22;5802;52.832;4.758;2023-07-31T09:25:17;24.20;56.80
11491;DHT22;5802;52.832;4.758;2023-07-31T09:27:50;24.20;56.90
11491;DHT22;5802;52.832;4.758;2023-07-31T09:30:18;24.20;56.80
11491;DHT22;5802;52.832;4.758;2023-07-31T09:32:46;24.20;56.80
11491;DHT22;5802;52.832;4.758;2023-07-31T09:35:15;24.20;56.70
11491;DHT22;5802;52.832;4.758;2023-07-31T09:37:48;24.20;56.70
11491;DHT22;5802;52.832;4.758;2023-07-31T09:40:25;24.20;56.80
11491;DHT22;5802;52.832;4.758;2023-07-31T09:42:53;24.20;56.70
11491;DHT22;5802;52.832;4.758;2023-07-31T09:45:19;24.30;56.60
11491;DHT22;5802;52.832;4.758;2023-07-31T09:47:46;24.30;56.60
11491;DHT22;5802;52.832;4.758;2023-07-31T09:50:14;24.30;56.50
11491;DHT22;5802;52.832;4.758;2023-07-31T09:52:41;24.30;56.50
11491;DHT22;5802;52.832;4.758;2023-07-31T09:55:09;24.30;56.40
11491;DHT22;5802;52.832;4.758;2023-07-31T09:57:39;24.30;56.40
11491;DHT22;5802;52.832;4.758;2023-07-31T10:00:08;24.30;56.40
11491;DHT22;5802;52.832;4.758;2023-07-31T10:02:36;24.30;56.40
11491;DHT22;5802;52.832;4.758;2023-07-31T10:05:05;24.30;56.40
11491;DHT22;5802;52.832;4.758;2023-07-31T10:07:36;24.30;56.50
11491;DHT22;5802;52.832;4.758;2023-07-31T10:10:08;24.30;56.60
11491;DHT22;5802;52.832;4.758;2023-07-31T10:12:36;24.30;56.80
11491;DHT22;5802;52.832;4.758;2023-07-31T10:15:05;24.30;57.20
11491;DHT22;5802;52.832;4.758;2023-07-31T10:17:32;24.30;61.00
11491;DHT22;5802;52.832;4.758;2023-07-31T10:19:59;24.30;57.10
11491;DHT22;5802;52.832;4.758;2023-07-31T10:22:30;24.30;57.00
11491;DHT22;5802;52.832;4.758;2023-07-31T10:24:58;24.30;57.00
11491;DHT22;5802;52.832;4.758;2023-07-31T10:27:27;24.30;57.20
11491;DHT22;5802;52.832;4.758;2023-07-31T10:29:55;24.40;57.30
11491;DHT22;5802;52.832;4.758;2023-07-31T10:32:23;24.40;57.40
11491;DHT22;5802;52.832;4.758;2023-07-31T10:34:51;24.40;57.40
11491;DHT22;5802;52.832;4.758;2023-07-31T10:37:25;24.40;57.60
11491;DHT22;5802;52.832;4.758;2023-07-31T10:39:59;24.40;58.00
11491;DHT22;5802;52.832;4.758;2023-07-31T10:42:33;24.40;58.30
11491;DHT22;5802;52.832;4.758;2023-07-31T10:45:04;24.40;58.60
11491;DHT22;5802;52.832;4.758;2023-07-31T10:47:31;24.40;58.90
11491;DHT22;5802;52.832;4.758;2023-07-31T10:50:20;24.40;59.10
11491;DHT22;5802;52.832;4.758;2023-07-31T10:52:48;24.40;59.30
11491;DHT22;5802;52.832;4.758;2023-07-31T10:55:23;24.40;59.50
11491;DHT22;5802;52.832;4.758;2023-07-31T10:57:51;24.50;59.70
11491;DHT22;5802;52.832;4.758;2023-07-31T11:00:19;24.50;59.80
11491;DHT22;5802;52.832;4.758;2023-07-31T11:02:56;24.50;60.00
11491;DHT22;5802;52.832;4.758;2023-07-31T11:05:41;24.50;60.20
11491;DHT22;5802;52.832;4.758;2023-07-31T11:08:14;24.50;60.30
11491;DHT22;5802;52.832;4.758;2023-07-31T11:10:42;24.50;60.40
11491;DHT22;5802;52.832;4.758;2023-07-31T11:13:10;24.50;60.40
11491;DHT22;5802;52.832;4.758;2023-07-31T11:15:37;24.50;60.30
11491;DHT22;5802;52.832;4.758;2023-07-31T11:18:04;24.50;60.20
11491;DHT22;5802;52.832;4.758;2023-07-31T11:20:34;24.50;60.00
11491;DHT22;5802;52.832;4.758;2023-07-31T11:23:01;24.60;59.90
11491;DHT22;5802;52.832;4.758;2023-07-31T11:25:29;24.60;59.80
11491;DHT22;5802;52.832;4.758;2023-07-31T11:27:56;24.60;59.50
11491;DHT22;5802;52.832;4.758;2023-07-31T11:30:24;24.60;59.30
11491;DHT22;5802;52.832;4.758;2023-07-31T11:32:51;24.70;59.20
11491;DHT22;5802;52.832;4.758;2023-07-31T11:35:18;24.70;59.00
11491;DHT22;5802;52.832;4.758;2023-07-31T11:37:45;24.70;59.50
11491;DHT22;5802;52.832;4.758;2023-07-31T11:40:12;24.70;58.70
11491;DHT22;5802;52.832;4.758;2023-07-31T11:42:38;24.70;58.70
11491;DHT22;5802;52.832;4.758;2023-07-31T11:45:06;24.80;58.60
11491;DHT22;5802;52.832;4.758;2023-07-31T11:47:35;24.80;58.50
11491;DHT22;5802;52.832;4.758;2023-07-31T11:50:03;24.80;58.30
11491;DHT22;5802;52.832;4.758;2023-07-31T11:52:39;24.80;58.10
11491;DHT22;5802;52.832;4.758;2023-07-31T11:55:08;24.80;58.10
11491;DHT22;5802;52.832;4.758;2023-07-31T11:57:37;24.80;58.00
11491;DHT22;5802;52.832;4.758;2023-07-31T12:00:06;24.80;57.80
11491;DHT22;5802;52.832;4.758;2023-07-31T12:02:36;24.80;57.70
11491;DHT22;5802;52.832;4.758;2023-07-31T12:05:05;24.80;57.70
11491;DHT22;5802;52.832;4.758;2023-07-31T12:07:43;24.80;57.60
11491;DHT22;5802;52.832;4.758;2023-07-31T12:10:10;24.90;57.60
11491;DHT22;5802;52.832;4.758;2023-07-31T12:12:37;24.90;57.60
11491;DHT22;5802;52.832;4.758;2023-07-31T12:15:14;24.90;57.60
11491;DHT22;5802;52.832;4.758;2023-07-31T12:17:42;24.90;57.60
11491;DHT22;5802;52.832;4.758;2023-07-31T12:20:10;24.90;57.50
11491;DHT22;5802;52.832;4.758;2023-07-31T12:22:36;24.90;57.50
11491;DHT22;5802;52.832;4.758;2023-07-31T12:25:04;24.90;57.50
11491;DHT22;5802;52.832;4.758;2023-07-31T12:27:33;24.90;57.50
11491;DHT22;5802;52.832;4.758;2023-07-31T12:29:59;24.90;57.40
11491;DHT22;5802;52.832;4.758;2023-07-31T12:32:30;24.90;57.30
11491;DHT22;5802;52.832;4.758;2023-07-31T12:35:00;24.90;57.30
11491;DHT22;5802;52.832;4.758;2023-07-31T12:37:28;24.90;57.30
11491;DHT22;5802;52.832;4.758;2023-07-31T12:39:55;24.90;57.20
11491;DHT22;5802;52.832;4.758;2023-07-31T12:42:26;25.00;57.80
11491;DHT22;5802;52.832;4.758;2023-07-31T12:44:52;24.90;57.10
11491;DHT22;5802;52.832;4.758;2023-07-31T12:47:19;25.00;57.20
11491;DHT22;5802;52.832;4.758;2023-07-31T12:49:46;25.00;57.70
11491;DHT22;5802;52.832;4.758;2023-07-31T12:52:14;25.00;57.10
11491;DHT22;5802;52.832;4.758;2023-07-31T12:54:41;25.00;57.10
11491;DHT22;5802;52.832;4.758;2023-07-31T12:57:07;25.00;57.10
11491;DHT22;5802;52.832;4.758;2023-07-31T12:59:34;25.00;57.10
11491;DHT22;5802;52.832;4.758;2023-07-31T13:02:01;25.00;57.00
11491;DHT22;5802;52.832;4.758;2023-07-31T13:04:27;25.00;57.00
11491;DHT22;5802;52.832;4.758;2023-07-31T13:06:55;25.00;57.00
11491;DHT22;5802;52.832;4.758;2023-07-31T13:09:23;25.00;56.90
11491;DHT22;5802;52.832;4.758;2023-07-31T13:11:49;25.00;57.10
11491;DHT22;5802;52.832;4.758;2023-07-31T13:14:16;25.00;57.50
11491;DHT22;5802;52.832;4.758;2023-07-31T13:16:43;25.00;57.20
11491;DHT22;5802;52.832;4.758;2023-07-31T13:19:09;25.00;57.20
11491;DHT22;5802;52.832;4.758;2023-07-31T13:21:36;25.00;57.20
11491;DHT22;5802;52.832;4.758;2023-07-31T13:24:04;25.00;57.10
11491;DHT22;5802;52.832;4.758;2023-07-31T13:26:32;25.00;57.20
11491;DHT22;5802;52.832;4.758;2023-07-31T13:28:59;25.00;57.20
11491;DHT22;5802;52.832;4.758;2023-07-31T13:31:26;25.00;57.20
11491;DHT22;5802;52.832;4.758;2023-07-31T13:33:52;25.10;57.20
11491;DHT22;5802;52.832;4.758;2023-07-31T13:36:19;25.10;57.10
11491;DHT22;5802;52.832;4.758;2023-07-31T13:38:46;25.10;57.10
11491;DHT22;5802;52.832;4.758;2023-07-31T13:41:12;25.10;57.10
11491;DHT22;5802;52.832;4.758;2023-07-31T13:43:40;25.10;57.20
11491;DHT22;5802;52.832;4.758;2023-07-31T13:46:07;25.10;57.20
11491;DHT22;5802;52.832;4.758;2023-07-31T13:48:36;25.10;57.20
11491;DHT22;5802;52.832;4.758;2023-07-31T13:51:03;25.10;57.20
11491;DHT22;5802;52.832;4.758;2023-07-31T13:53:30;25.10;57.10
11491;DHT22;5802;52.832;4.758;2023-07-31T13:55:57;25.10;57.10
11491;DHT22;5802;52.832;4.758;2023-07-31T13:58:23;25.10;57.10
11491;DHT22;5802;52.832;4.758;2023-07-31T14:00:51;25.10;57.20
11491;DHT22;5802;52.832;4.758;2023-07-31T14:03:18;25.10;57.20
11491;DHT22;5802;52.832;4.758;2023-07-31T14:05:45;25.10;57.30
11491;DHT22;5802;52.832;4.758;2023-07-31T14:08:12;25.10;57.10
11491;DHT22;5802;52.832;4.758;2023-07-31T14:10:38;25.10;57.20
11491;DHT22;5802;52.832;4.758;2023-07-31T14:13:05;25.00;57.00
11491;DHT22;5802;52.832;4.758;2023-07-31T14:15:32;25.00;57.00
11491;DHT22;5802;52.832;4.758;2023-07-31T14:18:02;25.00;56.90
11491;DHT22;5802;52.832;4.758;2023-07-31T14:20:30;25.00;57.00
11491;DHT22;5802;52.832;4.758;2023-07-31T14:22:56;25.00;57.00
11491;DHT22;5802;52.832;4.758;2023-07-31T14:25:24;25.00;57.00
11491;DHT22;5802;52.832;4.758;2023-07-31T14:27:51;25.00;57.00
11491;DHT22;5802;52.832;4.758;2023-07-31T14:30:20;25.00;57.10
11491;DHT22;5802;52.832;4.758;2023-07-31T14:32:47;24.90;57.00
11491;DHT22;5802;52.832;4.758;2023-07-31T14:35:15;24.90;57.00
11491;DHT22;5802;52.832;4.758;2023-07-31T14:37:43;25.00;57.10
11491;DHT22;5802;52.832;4.758;2023-07-31T14:40:11;24.90;57.00
11491;DHT22;5802;52.832;4.758;2023-07-31T14:42:39;25.00;57.20
11491;DHT22;5802;52.832;4.758;2023-07-31T14:45:07;24.90;57.10
11491;DHT22;5802;52.832;4.758;2023-07-31T14:47:35;24.90;57.10
11491;DHT22;5802;52.832;4.758;2023-07-31T14:50:02;24.90;57.10
11491;DHT22;5802;52.832;4.758;2023-07-31T14:52:30;24.90;57.10
11491;DHT22;5802;52.832;4.758;2023-07-31T14:54:57;25.00;57.10
11491;DHT22;5802;52.832;4.758;2023-07-31T14:57:24;25.00;57.10
11491;DHT22;5802;52.832;4.758;2023-07-31T14:59:50;24.90;57.10
11491;DHT22;5802;52.832;4.758;2023-07-31T15:02:17;25.00;57.10
11491;DHT22;5802;52.832;4.758;2023-07-31T15:04:44;25.00;57.10
11491;DHT22;5802;52.832;4.758;2023-07-31T15:07:10;25.00;57.10
11491;DHT22;5802;52.832;4.758;2023-07-31T15:09:40;25.00;57.00
11491;DHT22;5802;52.832;4.758;2023-07-31T15:12:08;25.00;57.10
11491;DHT22;5802;52.832;4.758;2023-07-31T15:14:34;25.00;57.00
11491;DHT22;5802;52.832;4.758;2023-07-31T15:17:01;25.00;57.00
11491;DHT22;5802;52.832;4.758;2023-07-31T15:19:28;25.00;57.00
11491;DHT22;5802;52.832;4.758;2023-07-31T15:21:55;25.00;57.00
11491;DHT22;5802;52.832;4.758;2023-07-31T15:24:22;25.00;57.00
11491;DHT22;5802;52.832;4.758;2023-07-31T15:26:50;25.00;57.10
11491;DHT22;5802;52.832;4.758;2023-07-31T15:29:17;25.00;57.10
11491;DHT22;5802;52.832;4.758;2023-07-31T15:31:45;25.00;57.20
11491;DHT22;5802;52.832;4.758;2023-07-31T15:34:12;24.90;57.20
11491;DHT22;5802;52.832;4.758;2023-07-31T15:36:39;24.90;57.20
11491;DHT22;5802;52.832;4.758;2023-07-31T15:39:05;24.90;57.20
11491;DHT22;5802;52.832;4.758;2023-07-31T15:41:33;24.90;57.30
11491;DHT22;5802;52.832;4.758;2023-07-31T15:44:01;24.90;57.40
11491;DHT22;5802;52.832;4.758;2023-07-31T15:46:31;24.90;57.40
11491;DHT22;5802;52.832;4.758;2023-07-31T15:48:58;24.90;57.50